Terminal Aerodrome Forecast
Issued by NWS Sioux Falls, SD

Home | Current Version | Previous Version | Graphics & Text | Print | Product List | Glossary On
Versions: 1 2 3 4 5 6 7 8 9 10 11 12 13 14 15 16 17 18 19 20 21 22 23 24
000
FTUS43 KFSD 302330
TAFFSD
TAF
KFSD 302330Z 0100/0124 15014KT P6SM BKN018
     FM010300 15009KT P6SM BKN015
     FM010900 15007KT P6SM OVC012
     FM011600 18007KT P6SM SCT012 OVC090
     FM012100 24006KT P6SM SCT040 BKN090=

USA.gov is the U.S. government's official web portal to all federal, state and local government web resources and services.